sensor_id;sensor_type;location;lat;lon;timestamp;P1;durP1;ratioP1;P2;durP2;ratioP2
31808;SDS011;18379;48.208;-1.518;2023-09-08T00:03:45;61.40;;;56.37;;
31808;SDS011;18379;48.208;-1.518;2023-09-08T00:08:45;60.75;;;56.20;;
31808;SDS011;18379;48.208;-1.518;2023-09-08T00:13:46;61.40;;;56.33;;
31808;SDS011;18379;48.208;-1.518;2023-09-08T00:18:47;60.67;;;55.87;;
31808;SDS011;18379;48.208;-1.518;2023-09-08T00:23:48;61.10;;;56.27;;
31808;SDS011;18379;48.208;-1.518;2023-09-08T00:28:48;61.30;;;56.33;;
31808;SDS011;18379;48.208;-1.518;2023-09-08T00:33:49;61.00;;;56.03;;
31808;SDS011;18379;48.208;-1.518;2023-09-08T00:38:50;61.20;;;56.10;;
31808;SDS011;18379;48.208;-1.518;2023-09-08T00:43:51;61.50;;;56.50;;
31808;SDS011;18379;48.208;-1.518;2023-09-08T00:48:51;60.60;;;55.97;;
31808;SDS011;18379;48.208;-1.518;2023-09-08T00:53:52;60.57;;;55.83;;
31808;SDS011;18379;48.208;-1.518;2023-09-08T00:58:53;60.90;;;56.20;;
31808;SDS011;18379;48.208;-1.518;2023-09-08T01:03:54;61.87;;;56.90;;
31808;SDS011;18379;48.208;-1.518;2023-09-08T01:08:54;60.50;;;55.60;;
31808;SDS011;18379;48.208;-1.518;2023-09-08T01:13:56;61.93;;;56.90;;
31808;SDS011;18379;48.208;-1.518;2023-09-08T01:18:56;61.23;;;56.20;;
31808;SDS011;18379;48.208;-1.518;2023-09-08T01:29:21;61.90;;;56.80;;
31808;SDS011;18379;48.208;-1.518;2023-09-08T01:34:24;61.17;;;56.17;;
31808;SDS011;18379;48.208;-1.518;2023-09-08T01:39:25;60.57;;;55.97;;
31808;SDS011;18379;48.208;-1.518;2023-09-08T01:44:26;62.03;;;56.77;;
31808;SDS011;18379;48.208;-1.518;2023-09-08T01:49:26;60.33;;;55.53;;
31808;SDS011;18379;48.208;-1.518;2023-09-08T01:54:27;60.27;;;55.60;;
31808;SDS011;18379;48.208;-1.518;2023-09-08T01:59:28;61.97;;;56.77;;
31808;SDS011;18379;48.208;-1.518;2023-09-08T02:04:28;60.67;;;55.83;;
31808;SDS011;18379;48.208;-1.518;2023-09-08T02:09:30;60.87;;;56.17;;
31808;SDS011;18379;48.208;-1.518;2023-09-08T02:14:32;60.67;;;55.83;;
31808;SDS011;18379;48.208;-1.518;2023-09-08T02:19:33;60.47;;;55.63;;
31808;SDS011;18379;48.208;-1.518;2023-09-08T02:24:33;61.87;;;56.80;;
31808;SDS011;18379;48.208;-1.518;2023-09-08T02:29:34;63.17;;;57.53;;
31808;SDS011;18379;48.208;-1.518;2023-09-08T02:34:35;66.30;;;59.73;;
31808;SDS011;18379;48.208;-1.518;2023-09-08T02:39:39;67.40;;;60.80;;
31808;SDS011;18379;48.208;-1.518;2023-09-08T02:44:40;64.37;;;58.97;;
31808;SDS011;18379;48.208;-1.518;2023-09-08T02:49:40;62.27;;;57.27;;
31808;SDS011;18379;48.208;-1.518;2023-09-08T02:54:41;63.43;;;57.93;;
31808;SDS011;18379;48.208;-1.518;2023-09-08T02:59:42;62.70;;;57.33;;
31808;SDS011;18379;48.208;-1.518;2023-09-08T03:04:43;62.53;;;57.20;;
31808;SDS011;18379;48.208;-1.518;2023-09-08T03:09:43;63.27;;;57.50;;
31808;SDS011;18379;48.208;-1.518;2023-09-08T03:14:44;62.13;;;57.07;;
31808;SDS011;18379;48.208;-1.518;2023-09-08T03:19:45;64.30;;;58.07;;
31808;SDS011;18379;48.208;-1.518;2023-09-08T03:24:46;62.30;;;57.30;;
31808;SDS011;18379;48.208;-1.518;2023-09-08T03:29:47;62.30;;;57.27;;
31808;SDS011;18379;48.208;-1.518;2023-09-08T03:34:48;63.40;;;58.20;;
31808;SDS011;18379;48.208;-1.518;2023-09-08T03:39:50;63.30;;;57.90;;
31808;SDS011;18379;48.208;-1.518;2023-09-08T03:44:51;62.33;;;57.07;;
31808;SDS011;18379;48.208;-1.518;2023-09-08T03:49:52;63.17;;;58.00;;
31808;SDS011;18379;48.208;-1.518;2023-09-08T03:54:52;62.47;;;57.17;;
31808;SDS011;18379;48.208;-1.518;2023-09-08T03:59:53;61.63;;;56.27;;
31808;SDS011;18379;48.208;-1.518;2023-09-08T04:04:54;63.47;;;58.07;;
31808;SDS011;18379;48.208;-1.518;2023-09-08T04:09:54;61.47;;;56.67;;
31808;SDS011;18379;48.208;-1.518;2023-09-08T04:14:55;62.63;;;57.37;;
31808;SDS011;18379;48.208;-1.518;2023-09-08T04:19:56;64.27;;;58.37;;
31808;SDS011;18379;48.208;-1.518;2023-09-08T04:24:56;65.37;;;59.73;;
31808;SDS011;18379;48.208;-1.518;2023-09-08T04:29:57;62.23;;;57.30;;
31808;SDS011;18379;48.208;-1.518;2023-09-08T04:34:59;63.83;;;58.43;;
31808;SDS011;18379;48.208;-1.518;2023-09-08T04:39:59;64.50;;;58.73;;
31808;SDS011;18379;48.208;-1.518;2023-09-08T04:45:00;64.70;;;58.73;;
31808;SDS011;18379;48.208;-1.518;2023-09-08T04:50:01;65.70;;;60.27;;
31808;SDS011;18379;48.208;-1.518;2023-09-08T04:55:01;64.23;;;58.83;;
31808;SDS011;18379;48.208;-1.518;2023-09-08T05:00:02;64.37;;;58.80;;
31808;SDS011;18379;48.208;-1.518;2023-09-08T05:05:03;64.27;;;59.00;;
31808;SDS011;18379;48.208;-1.518;2023-09-08T05:10:04;64.17;;;59.00;;
31808;SDS011;18379;48.208;-1.518;2023-09-08T05:15:05;62.83;;;57.77;;
31808;SDS011;18379;48.208;-1.518;2023-09-08T05:20:10;66.37;;;60.17;;
31808;SDS011;18379;48.208;-1.518;2023-09-08T05:25:11;63.60;;;58.40;;
31808;SDS011;18379;48.208;-1.518;2023-09-08T05:30:12;64.73;;;59.33;;
31808;SDS011;18379;48.208;-1.518;2023-09-08T05:35:13;64.30;;;58.60;;
31808;SDS011;18379;48.208;-1.518;2023-09-08T05:40:14;65.03;;;59.60;;
31808;SDS011;18379;48.208;-1.518;2023-09-08T05:45:15;65.87;;;60.23;;
31808;SDS011;18379;48.208;-1.518;2023-09-08T05:50:15;64.80;;;59.17;;
31808;SDS011;18379;48.208;-1.518;2023-09-08T05:55:16;64.10;;;58.60;;
31808;SDS011;18379;48.208;-1.518;2023-09-08T06:00:17;66.10;;;60.10;;
31808;SDS011;18379;48.208;-1.518;2023-09-08T06:05:18;63.73;;;58.57;;
31808;SDS011;18379;48.208;-1.518;2023-09-08T06:10:19;64.47;;;59.10;;
31808;SDS011;18379;48.208;-1.518;2023-09-08T06:15:20;65.20;;;59.50;;
31808;SDS011;18379;48.208;-1.518;2023-09-08T06:20:20;65.97;;;60.07;;
31808;SDS011;18379;48.208;-1.518;2023-09-08T06:25:21;63.77;;;58.50;;
31808;SDS011;18379;48.208;-1.518;2023-09-08T06:30:22;65.07;;;59.40;;
31808;SDS011;18379;48.208;-1.518;2023-09-08T06:35:23;65.00;;;59.27;;
31808;SDS011;18379;48.208;-1.518;2023-09-08T06:40:24;63.97;;;58.90;;
31808;SDS011;18379;48.208;-1.518;2023-09-08T06:45:24;64.47;;;59.13;;
31808;SDS011;18379;48.208;-1.518;2023-09-08T06:50:25;64.17;;;58.50;;
31808;SDS011;18379;48.208;-1.518;2023-09-08T06:55:27;63.50;;;58.63;;
31808;SDS011;18379;48.208;-1.518;2023-09-08T07:00:27;63.60;;;58.40;;
31808;SDS011;18379;48.208;-1.518;2023-09-08T07:05:28;63.13;;;57.97;;
31808;SDS011;18379;48.208;-1.518;2023-09-08T07:10:29;63.30;;;58.23;;
31808;SDS011;18379;48.208;-1.518;2023-09-08T07:15:29;63.53;;;58.10;;
31808;SDS011;18379;48.208;-1.518;2023-09-08T07:20:30;63.63;;;58.33;;
31808;SDS011;18379;48.208;-1.518;2023-09-08T07:25:31;64.87;;;59.13;;
31808;SDS011;18379;48.208;-1.518;2023-09-08T07:30:31;63.43;;;58.20;;
31808;SDS011;18379;48.208;-1.518;2023-09-08T07:35:36;64.60;;;59.33;;
31808;SDS011;18379;48.208;-1.518;2023-09-08T07:40:38;64.60;;;59.20;;
31808;SDS011;18379;48.208;-1.518;2023-09-08T07:45:38;63.60;;;58.60;;
31808;SDS011;18379;48.208;-1.518;2023-09-08T07:50:40;64.13;;;58.17;;
31808;SDS011;18379;48.208;-1.518;2023-09-08T07:55:41;62.83;;;57.65;;
31808;SDS011;18379;48.208;-1.518;2023-09-08T08:00:41;63.25;;;58.17;;
31808;SDS011;18379;48.208;-1.518;2023-09-08T08:05:42;63.35;;;58.17;;
31808;SDS011;18379;48.208;-1.518;2023-09-08T08:10:43;62.55;;;57.67;;
31808;SDS011;18379;48.208;-1.518;2023-09-08T08:15:44;63.50;;;58.28;;
31808;SDS011;18379;48.208;-1.518;2023-09-08T08:20:47;63.38;;;58.40;;
31808;SDS011;18379;48.208;-1.518;2023-09-08T08:25:50;64.35;;;58.85;;
31808;SDS011;18379;48.208;-1.518;2023-09-08T08:30:51;65.10;;;58.95;;
31808;SDS011;18379;48.208;-1.518;2023-09-08T08:35:52;63.85;;;58.70;;
31808;SDS011;18379;48.208;-1.518;2023-09-08T08:40:53;64.00;;;58.75;;
31808;SDS011;18379;48.208;-1.518;2023-09-08T08:45:54;63.30;;;58.25;;
31808;SDS011;18379;48.208;-1.518;2023-09-08T08:50:57;64.35;;;59.22;;
31808;SDS011;18379;48.208;-1.518;2023-09-08T08:55:59;63.28;;;58.20;;
31808;SDS011;18379;48.208;-1.518;2023-09-08T09:01:01;63.70;;;58.42;;
31808;SDS011;18379;48.208;-1.518;2023-09-08T09:06:03;62.63;;;57.55;;
31808;SDS011;18379;48.208;-1.518;2023-09-08T09:11:04;63.88;;;58.72;;
31808;SDS011;18379;48.208;-1.518;2023-09-08T09:16:05;65.55;;;59.72;;
31808;SDS011;18379;48.208;-1.518;2023-09-08T09:21:10;63.08;;;57.90;;
31808;SDS011;18379;48.208;-1.518;2023-09-08T09:26:11;64.05;;;58.38;;
31808;SDS011;18379;48.208;-1.518;2023-09-08T09:31:24;62.80;;;57.80;;
31808;SDS011;18379;48.208;-1.518;2023-09-08T09:36:25;63.35;;;58.00;;
31808;SDS011;18379;48.208;-1.518;2023-09-08T09:41:29;64.28;;;58.72;;
31808;SDS011;18379;48.208;-1.518;2023-09-08T09:46:30;65.35;;;59.63;;
31808;SDS011;18379;48.208;-1.518;2023-09-08T09:51:31;64.15;;;58.78;;
31808;SDS011;18379;48.208;-1.518;2023-09-08T09:56:32;62.75;;;57.85;;
31808;SDS011;18379;48.208;-1.518;2023-09-08T10:01:34;63.20;;;58.47;;
31808;SDS011;18379;48.208;-1.518;2023-09-08T10:06:37;63.45;;;58.72;;
31808;SDS011;18379;48.208;-1.518;2023-09-08T10:11:48;62.30;;;57.67;;
31808;SDS011;18379;48.208;-1.518;2023-09-08T10:16:50;63.88;;;58.97;;
31808;SDS011;18379;48.208;-1.518;2023-09-08T10:21:59;63.35;;;58.15;;
31808;SDS011;18379;48.208;-1.518;2023-09-08T10:27:04;62.97;;;57.63;;
31808;SDS011;18379;48.208;-1.518;2023-09-08T10:32:09;62.90;;;58.17;;
31808;SDS011;18379;48.208;-1.518;2023-09-08T10:37:20;62.28;;;57.45;;
31808;SDS011;18379;48.208;-1.518;2023-09-08T10:42:25;62.75;;;58.05;;
31808;SDS011;18379;48.208;-1.518;2023-09-08T10:47:32;62.88;;;58.03;;
31808;SDS011;18379;48.208;-1.518;2023-09-08T10:52:50;62.63;;;57.50;;
31808;SDS011;18379;48.208;-1.518;2023-09-08T10:58:17;62.20;;;57.03;;
31808;SDS011;18379;48.208;-1.518;2023-09-08T11:03:27;62.10;;;57.35;;
31808;SDS011;18379;48.208;-1.518;2023-09-08T11:08:42;62.45;;;57.45;;
31808;SDS011;18379;48.208;-1.518;2023-09-08T11:13:43;61.80;;;56.92;;
31808;SDS011;18379;48.208;-1.518;2023-09-08T11:18:47;62.55;;;57.42;;
31808;SDS011;18379;48.208;-1.518;2023-09-08T11:23:50;62.08;;;57.38;;
31808;SDS011;18379;48.208;-1.518;2023-09-08T11:28:51;62.08;;;57.30;;
31808;SDS011;18379;48.208;-1.518;2023-09-08T11:33:56;62.95;;;58.13;;
31808;SDS011;18379;48.208;-1.518;2023-09-08T11:38:59;63.25;;;58.15;;
31808;SDS011;18379;48.208;-1.518;2023-09-08T11:44:00;63.58;;;58.08;;
31808;SDS011;18379;48.208;-1.518;2023-09-08T11:49:00;61.88;;;57.10;;
31808;SDS011;18379;48.208;-1.518;2023-09-08T11:54:03;62.63;;;57.45;;
31808;SDS011;18379;48.208;-1.518;2023-09-08T11:59:04;62.47;;;57.55;;
31808;SDS011;18379;48.208;-1.518;2023-09-08T12:04:05;62.78;;;57.47;;
31808;SDS011;18379;48.208;-1.518;2023-09-08T12:09:07;62.28;;;57.15;;
31808;SDS011;18379;48.208;-1.518;2023-09-08T12:14:11;62.17;;;57.13;;
31808;SDS011;18379;48.208;-1.518;2023-09-08T12:19:28;62.75;;;57.33;;
31808;SDS011;18379;48.208;-1.518;2023-09-08T12:24:46;62.47;;;57.35;;
31808;SDS011;18379;48.208;-1.518;2023-09-08T12:29:53;62.65;;;57.45;;
31808;SDS011;18379;48.208;-1.518;2023-09-08T12:34:55;63.78;;;58.83;;
31808;SDS011;18379;48.208;-1.518;2023-09-08T12:39:56;63.53;;;58.25;;
31808;SDS011;18379;48.208;-1.518;2023-09-08T12:44:57;63.03;;;57.47;;
31808;SDS011;18379;48.208;-1.518;2023-09-08T12:49:57;62.22;;;57.45;;
31808;SDS011;18379;48.208;-1.518;2023-09-08T12:54:58;63.90;;;58.53;;
31808;SDS011;18379;48.208;-1.518;2023-09-08T12:59:59;63.50;;;57.95;;
31808;SDS011;18379;48.208;-1.518;2023-09-08T13:05:00;63.00;;;58.08;;
31808;SDS011;18379;48.208;-1.518;2023-09-08T13:10:04;62.67;;;57.65;;
31808;SDS011;18379;48.208;-1.518;2023-09-08T13:15:06;62.75;;;57.90;;
31808;SDS011;18379;48.208;-1.518;2023-09-08T13:20:07;62.83;;;58.00;;
31808;SDS011;18379;48.208;-1.518;2023-09-08T13:25:08;63.40;;;58.33;;
31808;SDS011;18379;48.208;-1.518;2023-09-08T13:30:12;63.40;;;58.42;;
31808;SDS011;18379;48.208;-1.518;2023-09-08T13:35:14;63.83;;;58.65;;
31808;SDS011;18379;48.208;-1.518;2023-09-08T13:40:15;63.90;;;58.67;;
31808;SDS011;18379;48.208;-1.518;2023-09-08T13:45:16;63.38;;;58.17;;
31808;SDS011;18379;48.208;-1.518;2023-09-08T13:50:16;62.90;;;57.67;;
31808;SDS011;18379;48.208;-1.518;2023-09-08T13:55:17;63.33;;;58.38;;
31808;SDS011;18379;48.208;-1.518;2023-09-08T14:00:23;63.00;;;58.30;;
31808;SDS011;18379;48.208;-1.518;2023-09-08T14:05:24;64.13;;;58.92;;
31808;SDS011;18379;48.208;-1.518;2023-09-08T14:10:25;64.00;;;59.10;;
31808;SDS011;18379;48.208;-1.518;2023-09-08T14:15:25;64.05;;;59.13;;
31808;SDS011;18379;48.208;-1.518;2023-09-08T14:20:26;65.57;;;60.22;;
31808;SDS011;18379;48.208;-1.518;2023-09-08T14:25:27;65.55;;;60.28;;
31808;SDS011;18379;48.208;-1.518;2023-09-08T14:30:28;65.63;;;60.47;;
31808;SDS011;18379;48.208;-1.518;2023-09-08T14:35:30;64.70;;;59.15;;
31808;SDS011;18379;48.208;-1.518;2023-09-08T14:40:30;64.90;;;59.50;;
31808;SDS011;18379;48.208;-1.518;2023-09-08T14:45:31;64.80;;;59.55;;
31808;SDS011;18379;48.208;-1.518;2023-09-08T14:50:32;64.32;;;59.15;;
31808;SDS011;18379;48.208;-1.518;2023-09-08T14:55:32;64.10;;;58.72;;
31808;SDS011;18379;48.208;-1.518;2023-09-08T15:00:34;64.43;;;59.25;;
31808;SDS011;18379;48.208;-1.518;2023-09-08T15:05:35;64.15;;;59.13;;
31808;SDS011;18379;48.208;-1.518;2023-09-08T15:10:36;64.60;;;59.55;;
31808;SDS011;18379;48.208;-1.518;2023-09-08T15:15:37;65.05;;;59.92;;
31808;SDS011;18379;48.208;-1.518;2023-09-08T15:20:38;63.88;;;58.60;;
31808;SDS011;18379;48.208;-1.518;2023-09-08T15:25:38;63.97;;;58.85;;
31808;SDS011;18379;48.208;-1.518;2023-09-08T15:30:39;64.30;;;59.15;;
31808;SDS011;18379;48.208;-1.518;2023-09-08T15:35:40;64.55;;;59.22;;
31808;SDS011;18379;48.208;-1.518;2023-09-08T15:41:12;65.43;;;59.90;;
31808;SDS011;18379;48.208;-1.518;2023-09-08T15:46:17;65.63;;;60.17;;
31808;SDS011;18379;48.208;-1.518;2023-09-08T15:51:18;64.85;;;59.40;;
31808;SDS011;18379;48.208;-1.518;2023-09-08T15:56:19;64.38;;;59.40;;
31808;SDS011;18379;48.208;-1.518;2023-09-08T16:01:20;64.72;;;59.08;;
31808;SDS011;18379;48.208;-1.518;2023-09-08T16:06:20;63.63;;;58.45;;
31808;SDS011;18379;48.208;-1.518;2023-09-08T16:11:21;64.53;;;58.75;;
31808;SDS011;18379;48.208;-1.518;2023-09-08T16:16:22;65.10;;;59.63;;
31808;SDS011;18379;48.208;-1.518;2023-09-08T16:21:22;65.43;;;59.58;;
31808;SDS011;18379;48.208;-1.518;2023-09-08T16:26:23;64.63;;;59.47;;
31808;SDS011;18379;48.208;-1.518;2023-09-08T16:31:24;65.78;;;60.30;;
31808;SDS011;18379;48.208;-1.518;2023-09-08T16:36:25;64.68;;;59.22;;
31808;SDS011;18379;48.208;-1.518;2023-09-08T16:41:25;63.90;;;59.00;;
31808;SDS011;18379;48.208;-1.518;2023-09-08T16:46:26;64.60;;;59.45;;
31808;SDS011;18379;48.208;-1.518;2023-09-08T16:51:27;65.88;;;60.58;;
31808;SDS011;18379;48.208;-1.518;2023-09-08T16:56:27;64.53;;;59.30;;
31808;SDS011;18379;48.208;-1.518;2023-09-08T17:01:28;64.03;;;58.65;;
31808;SDS011;18379;48.208;-1.518;2023-09-08T17:06:29;65.28;;;59.60;;
31808;SDS011;18379;48.208;-1.518;2023-09-08T17:11:30;65.35;;;60.13;;
31808;SDS011;18379;48.208;-1.518;2023-09-08T17:16:36;63.95;;;58.50;;
31808;SDS011;18379;48.208;-1.518;2023-09-08T17:21:37;63.67;;;58.67;;
31808;SDS011;18379;48.208;-1.518;2023-09-08T17:26:38;64.47;;;58.63;;
31808;SDS011;18379;48.208;-1.518;2023-09-08T17:31:39;63.67;;;58.72;;
31808;SDS011;18379;48.208;-1.518;2023-09-08T17:36:39;62.97;;;57.78;;
31808;SDS011;18379;48.208;-1.518;2023-09-08T17:41:40;63.40;;;58.13;;
31808;SDS011;18379;48.208;-1.518;2023-09-08T17:46:42;62.65;;;57.47;;
31808;SDS011;18379;48.208;-1.518;2023-09-08T17:51:42;63.78;;;58.30;;
31808;SDS011;18379;48.208;-1.518;2023-09-08T17:56:43;62.53;;;57.15;;
31808;SDS011;18379;48.208;-1.518;2023-09-08T18:01:44;62.53;;;57.78;;
31808;SDS011;18379;48.208;-1.518;2023-09-08T18:06:45;62.00;;;57.08;;
31808;SDS011;18379;48.208;-1.518;2023-09-08T18:11:45;61.95;;;57.13;;
31808;SDS011;18379;48.208;-1.518;2023-09-08T18:16:47;61.88;;;57.17;;
31808;SDS011;18379;48.208;-1.518;2023-09-08T18:21:50;64.10;;;58.80;;
31808;SDS011;18379;48.208;-1.518;2023-09-08T18:26:50;62.95;;;57.83;;
31808;SDS011;18379;48.208;-1.518;2023-09-08T18:31:51;63.58;;;58.67;;
31808;SDS011;18379;48.208;-1.518;2023-09-08T18:36:52;62.90;;;58.00;;
31808;SDS011;18379;48.208;-1.518;2023-09-08T18:41:52;62.67;;;57.88;;
31808;SDS011;18379;48.208;-1.518;2023-09-08T18:46:53;64.97;;;59.47;;
31808;SDS011;18379;48.208;-1.518;2023-09-08T18:51:53;63.33;;;58.15;;
31808;SDS011;18379;48.208;-1.518;2023-09-08T18:56:54;62.88;;;58.17;;
31808;SDS011;18379;48.208;-1.518;2023-09-08T19:01:55;63.03;;;58.35;;
31808;SDS011;18379;48.208;-1.518;2023-09-08T19:06:56;63.88;;;58.47;;
31808;SDS011;18379;48.208;-1.518;2023-09-08T19:11:57;63.83;;;58.78;;
31808;SDS011;18379;48.208;-1.518;2023-09-08T19:16:58;63.75;;;58.70;;
31808;SDS011;18379;48.208;-1.518;2023-09-08T19:22:00;62.35;;;57.65;;
31808;SDS011;18379;48.208;-1.518;2023-09-08T19:27:00;63.65;;;58.35;;
31808;SDS011;18379;48.208;-1.518;2023-09-08T19:32:01;62.53;;;57.78;;
31808;SDS011;18379;48.208;-1.518;2023-09-08T19:37:02;62.60;;;57.53;;
31808;SDS011;18379;48.208;-1.518;2023-09-08T19:42:03;63.90;;;58.33;;
31808;SDS011;18379;48.208;-1.518;2023-09-08T19:47:04;62.90;;;58.15;;
31808;SDS011;18379;48.208;-1.518;2023-09-08T19:52:05;62.75;;;57.60;;
31808;SDS011;18379;48.208;-1.518;2023-09-08T19:57:05;61.97;;;57.05;;
31808;SDS011;18379;48.208;-1.518;2023-09-08T20:02:06;62.33;;;57.72;;
31808;SDS011;18379;48.208;-1.518;2023-09-08T20:07:08;62.53;;;57.80;;
31808;SDS011;18379;48.208;-1.518;2023-09-08T20:12:08;62.90;;;58.28;;
31808;SDS011;18379;48.208;-1.518;2023-09-08T20:17:09;63.13;;;58.05;;
31808;SDS011;18379;48.208;-1.518;2023-09-08T20:22:10;62.28;;;57.40;;
31808;SDS011;18379;48.208;-1.518;2023-09-08T20:27:10;62.78;;;58.17;;
31808;SDS011;18379;48.208;-1.518;2023-09-08T20:32:11;63.33;;;58.50;;
31808;SDS011;18379;48.208;-1.518;2023-09-08T20:37:12;62.88;;;58.10;;
31808;SDS011;18379;48.208;-1.518;2023-09-08T20:42:12;63.33;;;58.70;;
31808;SDS011;18379;48.208;-1.518;2023-09-08T20:47:13;63.20;;;58.38;;
31808;SDS011;18379;48.208;-1.518;2023-09-08T20:52:16;63.95;;;59.05;;
31808;SDS011;18379;48.208;-1.518;2023-09-08T20:57:17;64.05;;;58.63;;
31808;SDS011;18379;48.208;-1.518;2023-09-08T21:02:18;62.83;;;58.30;;
31808;SDS011;18379;48.208;-1.518;2023-09-08T21:07:19;63.08;;;58.53;;
31808;SDS011;18379;48.208;-1.518;2023-09-08T21:12:20;63.27;;;58.47;;
31808;SDS011;18379;48.208;-1.518;2023-09-08T21:17:21;62.60;;;58.17;;
31808;SDS011;18379;48.208;-1.518;2023-09-08T21:22:22;63.73;;;58.50;;
31808;SDS011;18379;48.208;-1.518;2023-09-08T21:27:22;63.47;;;58.67;;
31808;SDS011;18379;48.208;-1.518;2023-09-08T21:32:23;62.83;;;58.33;;
31808;SDS011;18379;48.208;-1.518;2023-09-08T21:37:24;63.77;;;58.60;;
31808;SDS011;18379;48.208;-1.518;2023-09-08T21:42:24;63.77;;;58.77;;
31808;SDS011;18379;48.208;-1.518;2023-09-08T21:47:26;63.30;;;58.63;;
31808;SDS011;18379;48.208;-1.518;2023-09-08T21:52:28;63.93;;;59.13;;
31808;SDS011;18379;48.208;-1.518;2023-09-08T21:57:29;61.73;;;57.33;;
31808;SDS011;18379;48.208;-1.518;2023-09-08T22:02:29;64.13;;;59.13;;
31808;SDS011;18379;48.208;-1.518;2023-09-08T22:07:30;61.87;;;57.50;;
31808;SDS011;18379;48.208;-1.518;2023-09-08T22:12:31;62.30;;;57.87;;
31808;SDS011;18379;48.208;-1.518;2023-09-08T22:17:31;62.57;;;58.07;;
31808;SDS011;18379;48.208;-1.518;2023-09-08T22:22:32;63.17;;;58.53;;
31808;SDS011;18379;48.208;-1.518;2023-09-08T22:27:33;63.57;;;58.90;;
31808;SDS011;18379;48.208;-1.518;2023-09-08T22:32:34;63.43;;;58.73;;
31808;SDS011;18379;48.208;-1.518;2023-09-08T22:37:34;63.30;;;58.20;;
31808;SDS011;18379;48.208;-1.518;2023-09-08T22:42:35;63.07;;;58.40;;
31808;SDS011;18379;48.208;-1.518;2023-09-08T22:47:36;63.00;;;58.23;;
31808;SDS011;18379;48.208;-1.518;2023-09-08T22:52:37;63.63;;;58.83;;
31808;SDS011;18379;48.208;-1.518;2023-09-08T22:57:41;62.00;;;57.47;;
31808;SDS011;18379;48.208;-1.518;2023-09-08T23:02:42;63.00;;;58.50;;
31808;SDS011;18379;48.208;-1.518;2023-09-08T23:07:45;63.70;;;58.90;;
31808;SDS011;18379;48.208;-1.518;2023-09-08T23:12:47;63.50;;;58.63;;
31808;SDS011;18379;48.208;-1.518;2023-09-08T23:17:48;62.60;;;58.20;;
31808;SDS011;18379;48.208;-1.518;2023-09-08T23:22:48;63.23;;;58.73;;
31808;SDS011;18379;48.208;-1.518;2023-09-08T23:27:50;64.73;;;59.57;;
31808;SDS011;18379;48.208;-1.518;2023-09-08T23:32:51;64.50;;;59.47;;
31808;SDS011;18379;48.208;-1.518;2023-09-08T23:37:51;65.67;;;60.70;;
31808;SDS011;18379;48.208;-1.518;2023-09-08T23:42:52;65.70;;;60.53;;
31808;SDS011;18379;48.208;-1.518;2023-09-08T23:47:53;64.23;;;59.43;;
31808;SDS011;18379;48.208;-1.518;2023-09-08T23:52:53;67.30;;;62.20;;
31808;SDS011;18379;48.208;-1.518;2023-09-08T23:57:54;65.33;;;60.13;;
